Time;durP1;ratioP1;P1;durP2;ratioP2;P2;SDS_P1;SDS_P2;PMS_P1;PMS_P2;Temp;Humidity;BMP_temperature;BMP_pressure;BME280_temperature;BME280_humidity;BME280_pressure;Samples;Min_cycle;Max_cycle;Signal;HPM_P1;HPM_P2
2021/08/07 00:00:09;;;;;;;5.80;2.57;;;17.20;99.90;;;17.15;92.20;97394.75;5018070;28;21247;-63
2021/08/07 00:02:42;;;;;;;4.53;2.67;;;17.20;99.90;;;17.14;93.25;97394.94;5026141;28;20721;-63
2021/08/07 00:05:11;;;;;;;5.83;2.23;;;17.20;99.90;;;17.12;92.69;97399.53;5027125;28;20743;-63
2021/08/07 00:07:39;;;;;;;3.67;2.40;;;17.20;99.90;;;17.09;92.64;97390.16;5026647;28;20989;-63
2021/08/07 00:10:09;;;;;;;4.43;2.50;;;17.20;99.90;;;17.09;92.58;97387.53;5028151;28;20630;-63
2021/08/07 00:12:39;;;;;;;4.43;2.20;;;17.20;99.90;;;17.08;92.95;97383.22;5021611;28;20643;-63
2021/08/07 00:15:09;;;;;;;8.60;2.70;;;17.10;99.90;;;17.07;92.67;97391.31;5026377;28;20683;-63
2021/08/07 00:17:39;;;;;;;2.90;2.60;;;17.20;99.90;;;17.05;93.36;97385.38;5026314;28;20684;-63
2021/08/07 00:20:11;;;;;;;3.70;2.40;;;17.10;99.90;;;17.03;92.70;97382.91;5024201;28;21160;-63
2021/08/07 00:22:39;;;;;;;3.00;2.70;;;17.10;99.90;;;17.03;93.96;97392.59;5025220;28;20668;-63
2021/08/07 00:25:10;;;;;;;6.23;3.43;;;17.10;99.90;;;17.01;93.29;97391.94;5024840;28;20639;-63
2021/08/07 00:27:38;;;;;;;4.20;2.70;;;17.10;99.90;;;17.00;93.42;97385.00;5027186;28;20733;-63
2021/08/07 00:30:09;;;;;;;3.20;2.30;;;17.10;99.90;;;16.99;92.39;97388.66;5023946;28;20719;-63
2021/08/07 00:32:38;;;;;;;5.67;2.60;;;17.10;99.90;;;16.96;94.07;97381.06;5025834;28;20741;-63
2021/08/07 00:35:12;;;;;;;2.80;2.20;;;17.00;99.90;;;16.94;94.30;97380.38;5021987;28;20633;-63
2021/08/07 00:37:43;;;;;;;3.10;2.53;;;17.00;99.90;;;16.90;93.71;97378.22;5023057;28;21049;-63
2021/08/07 00:40:15;;;;;;;4.40;2.47;;;17.00;99.90;;;16.87;93.79;97374.13;5028165;28;20628;-63
2021/08/07 00:42:46;;;;;;;4.13;2.23;;;17.00;99.90;;;16.86;92.32;97366.38;5025095;28;20743;-63
2021/08/07 00:45:24;;;;;;;5.70;2.50;;;16.90;99.90;;;16.83;92.19;97364.06;5017655;28;20687;-63
2021/08/07 00:47:59;;;;;;;3.77;2.50;;;16.90;99.90;;;16.79;92.25;97366.19;5024689;28;20628;-63
2021/08/07 00:50:30;;;;;;;3.47;2.30;;;16.90;99.90;;;16.75;92.70;97371.97;5025451;28;20721;-63
2021/08/07 00:52:58;;;;;;;4.07;2.50;;;16.90;99.90;;;16.72;93.56;97381.00;5022491;28;20715;-63
2021/08/07 00:55:29;;;;;;;3.83;2.37;;;16.80;99.90;;;16.68;92.27;97374.38;5030187;28;20691;-63
2021/08/07 00:58:00;;;;;;;4.80;2.50;;;16.80;99.90;;;16.64;92.01;97373.06;5018301;28;20661;-63
2021/08/07 01:00:28;;;;;;;6.30;2.73;;;16.70;99.90;;;16.64;93.29;97366.97;5022474;28;20711;-63
2021/08/07 01:03:11;;;;;;;3.00;2.63;;;16.70;99.90;;;16.64;93.16;97370.44;5024921;28;20691;-63
2021/08/07 01:05:51;;;;;;;5.50;2.50;;;16.70;99.90;;;16.64;92.74;97370.44;5021410;28;20767;-63
2021/08/07 01:08:23;;;;;;;4.83;2.63;;;16.70;99.90;;;16.65;92.88;97364.16;5024107;28;20672;-63
2021/08/07 01:11:13;;;;;;;2.30;2.10;;;16.70;99.90;;;16.67;93.67;97371.91;5024568;28;20636;-63
2021/08/07 01:13:47;;;;;;;5.33;2.43;;;16.70;99.90;;;16.65;92.96;97374.69;5021035;28;20698;-63
2021/08/07 01:16:27;;;;;;;3.43;2.40;;;16.70;99.90;;;16.63;94.44;97375.88;5026538;28;20643;-63
2021/08/07 01:19:00;;;;;;;5.40;2.30;;;16.70;99.90;;;16.62;93.71;97376.84;5017695;28;20656;-63
2021/08/07 01:21:38;;;;;;;5.60;2.53;;;16.70;99.90;;;16.61;93.70;97362.84;5022465;28;20702;-63
2021/08/07 01:24:15;;;;;;;2.70;2.33;;;16.70;99.90;;;16.62;93.28;97364.50;5027248;28;21218;-63
2021/08/07 01:27:11;;;;;;;2.87;2.33;;;16.70;99.90;;;16.61;93.81;97357.59;5020716;28;20644;-63
2021/08/07 01:29:41;;;;;;;3.30;2.60;;;16.70;99.90;;;16.60;93.73;97355.13;5021347;28;20651;-63
2021/08/07 01:32:10;;;;;;;3.70;2.40;;;16.70;99.90;;;16.61;93.40;97357.59;5024263;28;20664;-63
2021/08/07 01:34:44;;;;;;;2.70;2.43;;;16.70;99.90;;;16.62;93.91;97343.41;5014492;28;20636;-63
2021/08/07 01:37:19;;;;;;;3.93;2.60;;;16.70;99.90;;;16.64;93.44;97343.25;5022149;28;21215;-63
2021/08/07 01:40:00;;;;;;;4.27;2.30;;;16.70;99.90;;;16.63;94.77;97329.28;5039820;28;20985;-63
2021/08/07 01:42:42;;;;;;;4.97;2.73;;;16.70;99.90;;;16.64;94.06;97340.63;5037507;28;20698;-63
2021/08/07 01:45:17;;;;;;;3.80;2.40;;;16.70;99.90;;;16.64;93.84;97328.31;5025808;28;20992;-63
2021/08/07 01:47:55;;;;;;;3.33;2.37;;;16.70;99.90;;;16.64;95.15;97319.56;5019713;28;20688;-63
2021/08/07 01:50:33;;;;;;;3.97;2.40;;;16.70;99.90;;;16.62;95.34;97325.00;5026925;28;20626;-63
2021/08/07 01:53:08;;;;;;;3.33;2.53;;;16.60;99.90;;;16.63;95.31;97331.09;5026420;28;20716;-63
2021/08/07 01:55:50;;;;;;;2.90;2.47;;;16.60;99.90;;;16.62;94.87;97327.63;5035070;28;20655;-63
2021/08/07 01:58:26;;;;;;;3.40;2.40;;;16.70;99.90;;;16.63;94.28;97333.72;5026874;28;20672;-64
2021/08/07 02:00:56;;;;;;;3.13;2.77;;;16.70;99.90;;;16.62;94.96;97325.00;5023509;28;20643;-63
2021/08/07 02:03:39;;;;;;;4.53;2.40;;;16.70;99.90;;;16.61;94.30;97310.19;5024271;28;20625;-63
2021/08/07 02:06:08;;;;;;;4.20;2.43;;;16.70;99.90;;;16.62;95.14;97311.00;5020899;28;20696;-63
2021/08/07 02:08:41;;;;;;;4.20;2.00;;;16.70;99.90;;;16.57;94.45;97314.13;5025810;28;21164;-63
2021/08/07 02:11:16;;;;;;;3.33;2.77;;;16.60;99.90;;;16.55;94.61;97316.09;5036798;28;20632;-63
2021/08/07 02:13:49;;;;;;;4.17;2.67;;;16.60;99.90;;;16.57;94.61;97318.56;5020545;28;20751;-63
2021/08/07 02:16:23;;;;;;;3.10;2.80;;;16.60;99.90;;;16.57;94.80;97323.84;5022719;28;21184;-63
2021/08/07 02:18:53;;;;;;;3.77;2.60;;;16.60;99.90;;;16.58;95.57;97314.94;5034912;28;20726;-63
2021/08/07 02:21:28;;;;;;;4.40;2.63;;;16.60;99.90;;;16.60;95.46;97316.44;5041731;28;20698;-63
2021/08/07 02:23:57;;;;;;;4.67;2.50;;;16.70;99.90;;;16.61;95.88;97304.94;5021500;28;20634;-63
2021/08/07 02:26:29;;;;;;;6.53;2.47;;;16.70;99.90;;;16.63;94.91;97307.41;5020578;28;20637;-63
2021/08/07 02:29:06;;;;;;;5.83;2.47;;;16.70;99.90;;;16.63;96.25;97300.31;5040401;28;21231;-63
2021/08/07 02:31:43;;;;;;;6.97;3.87;;;16.70;99.90;;;16.64;94.17;97288.81;5019519;28;20632;-63
2021/08/07 02:34:14;;;;;;;4.13;2.80;;;16.70;99.90;;;16.65;96.07;97295.69;5016851;28;20640;-63
2021/08/07 02:36:44;;;;;;;4.63;2.07;;;16.70;99.90;;;16.66;95.51;97293.91;5022748;28;20648;-63
2021/08/07 02:39:21;;;;;;;2.80;2.50;;;16.70;99.90;;;16.66;94.90;97294.72;5035213;28;21270;-63
2021/08/07 02:41:51;;;;;;;3.27;2.30;;;16.70;99.90;;;16.66;95.24;97289.47;5034453;28;20694;-63
2021/08/07 02:44:21;;;;;;;3.03;2.37;;;16.70;99.90;;;16.65;95.42;97292.25;5041206;28;20643;-63
2021/08/07 02:46:51;;;;;;;5.50;2.43;;;16.70;99.90;;;16.65;94.53;97295.69;5026770;28;21252;-63
2021/08/07 02:49:21;;;;;;;2.73;2.40;;;16.70;99.90;;;16.66;94.02;97292.09;5019856;28;20633;-63
2021/08/07 02:51:51;;;;;;;3.10;2.30;;;16.70;99.90;;;16.66;93.99;97288.66;5037837;28;20702;-63
2021/08/07 02:54:22;;;;;;;4.87;2.63;;;16.70;99.90;;;16.68;94.71;97297.19;5036503;28;20633;-63
2021/08/07 02:56:50;;;;;;;3.10;2.70;;;16.70;99.90;;;16.68;94.58;97290.13;5025122;28;20743;-63
2021/08/07 02:59:24;;;;;;;5.20;2.30;;;16.70;99.90;;;16.67;94.93;97285.00;5018462;28;20657;-63
2021/08/07 03:01:53;;;;;;;4.13;2.13;;;16.70;99.90;;;16.65;95.78;97289.63;5024833;28;20724;-63
2021/08/07 03:04:22;;;;;;;4.07;2.20;;;16.70;99.90;;;16.64;94.87;97283.53;5025088;28;20719;-63
2021/08/07 03:06:55;;;;;;;4.37;2.60;;;16.70;99.90;;;16.63;95.16;97281.88;5027479;28;20668;-63
2021/08/07 03:09:24;;;;;;;2.90;2.20;;;16.70;99.90;;;16.63;94.58;97287.16;5038791;28;20996;-63
2021/08/07 03:11:55;;;;;;;2.97;2.67;;;16.70;99.90;;;16.62;94.73;97290.75;5025135;28;20716;-63
2021/08/07 03:14:25;;;;;;;2.83;2.50;;;16.70;99.90;;;16.62;95.42;97295.22;5037540;28;20655;-63
2021/08/07 03:16:55;;;;;;;8.97;3.10;;;16.70;99.90;;;16.62;95.85;97289.94;5024060;28;20624;-64
2021/08/07 03:19:27;;;;;;;9.77;2.60;;;16.70;99.90;;;16.62;96.10;97292.56;5042572;28;20730;-63
2021/08/07 03:21:58;;;;;;;4.87;2.50;;;16.70;99.90;;;16.60;95.76;97294.56;5040131;28;20629;-63
2021/08/07 03:24:31;;;;;;;3.17;2.30;;;16.70;99.90;;;16.60;94.22;97279.56;5021176;28;21014;-63
2021/08/07 03:27:00;;;;;;;2.67;2.30;;;16.70;99.90;;;16.63;95.38;97273.16;5037474;28;20664;-63
2021/08/07 03:29:30;;;;;;;3.20;2.90;;;16.70;99.90;;;16.64;95.00;97274.78;5026118;28;20629;-63
2021/08/07 03:32:06;;;;;;;6.50;2.80;;;16.70;99.90;;;16.61;95.88;97262.78;5023003;28;20678;-63
2021/08/07 03:34:40;;;;;;;2.83;2.37;;;16.70;99.90;;;16.58;95.70;97263.13;5019703;28;20660;-63
2021/08/07 03:37:11;;;;;;;3.07;2.27;;;16.70;99.90;;;16.56;94.39;97257.16;5028867;28;20629;-63
2021/08/07 03:39:47;;;;;;;3.40;2.60;;;16.70;99.90;;;16.53;93.23;97265.38;5041780;28;20771;-63
2021/08/07 03:42:16;;;;;;;5.97;2.53;;;16.70;99.90;;;16.51;94.68;97272.63;5027354;28;20675;-63
2021/08/07 03:44:46;;;;;;;4.57;2.40;;;16.60;99.90;;;16.50;95.01;97265.72;5030389;28;20977;-63
2021/08/07 03:47:16;;;;;;;4.33;2.53;;;16.60;99.90;;;16.49;94.25;97262.44;5023508;28;20629;-63
2021/08/07 03:49:46;;;;;;;3.13;2.40;;;16.60;99.90;;;16.47;95.12;97265.22;5043260;28;21224;-63
2021/08/07 03:52:17;;;;;;;3.93;2.03;;;16.60;99.90;;;16.45;93.52;97263.72;5018919;28;20742;-63
2021/08/07 03:54:49;;;;;;;4.33;2.90;;;16.50;99.90;;;16.42;95.00;97264.03;5041766;28;21001;-63
2021/08/07 03:57:19;;;;;;;2.40;2.20;;;16.50;99.90;;;16.37;93.63;97268.97;5028772;28;21069;-63
2021/08/07 03:59:49;;;;;;;3.77;2.90;;;16.50;99.90;;;16.35;94.00;97260.41;5040099;28;20672;-63
2021/08/07 04:02:18;;;;;;;2.67;1.83;;;16.50;99.90;;;16.32;94.98;97260.75;5024905;28;20634;-63
2021/08/07 04:04:48;;;;;;;3.00;2.53;;;16.40;99.90;;;16.30;93.08;97254.81;5025629;28;20631;-64
2021/08/07 04:07:17;;;;;;;3.70;2.37;;;16.40;99.90;;;16.28;92.87;97254.97;5040875;28;20676;-64
2021/08/07 04:09:50;;;;;;;6.47;2.60;;;16.40;99.90;;;16.25;93.02;97254.47;5041819;28;20612;-63
2021/08/07 04:12:19;;;;;;;3.77;2.77;;;16.40;99.90;;;16.23;94.53;97251.16;5020584;28;21196;-63
2021/08/07 04:14:49;;;;;;;3.03;2.20;;;16.40;99.90;;;16.21;94.60;97248.66;5025533;28;20652;-63
2021/08/07 04:17:18;;;;;;;4.20;2.60;;;16.30;99.90;;;16.22;93.00;97247.72;5029830;28;20625;-63
2021/08/07 04:19:47;;;;;;;3.83;2.40;;;16.30;99.90;;;16.24;93.81;97242.31;5026120;28;21604;-63
2021/08/07 04:22:29;;;;;;;2.70;2.50;;;16.30;99.90;;;16.22;93.70;97237.19;5030015;28;20644;-63
2021/08/07 04:24:57;;;;;;;2.57;2.37;;;16.30;99.90;;;16.22;95.12;97226.66;5028932;28;20659;-63
2021/08/07 04:27:26;;;;;;;3.00;2.70;;;16.30;99.90;;;16.21;93.27;97227.63;5042039;28;20637;-63
2021/08/07 04:29:57;;;;;;;4.10;2.70;;;16.30;99.90;;;16.20;94.60;97230.41;5041599;28;21251;-63
2021/08/07 04:32:26;;;;;;;4.93;3.00;;;16.30;99.90;;;16.23;94.27;97241.47;5022758;28;20664;-63
2021/08/07 04:35:00;;;;;;;3.67;2.73;;;16.30;99.90;;;16.25;94.05;97241.28;5044506;28;21208;-63
2021/08/07 04:37:28;;;;;;;2.70;2.40;;;16.30;99.90;;;16.25;96.02;97241.28;5021830;28;20688;-63
2021/08/07 04:39:57;;;;;;;4.10;3.00;;;16.30;99.90;;;16.24;95.04;97243.13;5028308;28;20671;-63
2021/08/07 04:42:30;;;;;;;3.50;2.53;;;16.30;99.90;;;16.26;94.70;97246.41;5037701;28;21010;-63
2021/08/07 04:45:00;;;;;;;3.37;2.87;;;16.30;99.90;;;16.27;94.38;97248.06;5025198;28;20993;-63
2021/08/07 04:47:29;;;;;;;3.80;2.53;;;16.40;99.90;;;16.29;94.38;97237.38;5027142;28;20640;-63
2021/08/07 04:49:58;;;;;;;3.83;2.40;;;16.40;99.90;;;16.30;94.17;97233.75;5008666;28;20632;-63
2021/08/07 04:52:29;;;;;;;5.00;2.70;;;16.40;99.90;;;16.35;93.93;97228.84;5026819;28;20637;-64
2021/08/07 04:54:58;;;;;;;2.90;2.43;;;16.40;99.90;;;16.37;94.44;97218.97;5019887;28;21221;-63
2021/08/07 04:57:28;;;;;;;3.63;2.47;;;16.40;99.90;;;16.38;95.45;97223.25;5043924;28;20935;-64
2021/08/07 04:59:58;;;;;;;3.90;2.80;;;16.40;99.90;;;16.40;94.59;97219.44;5023244;28;20754;-63
2021/08/07 05:02:28;;;;;;;3.53;2.60;;;16.40;99.90;;;16.44;93.13;97218.16;5029678;28;20620;-63
2021/08/07 05:04:58;;;;;;;4.40;2.90;;;16.50;99.90;;;16.51;93.33;97219.97;5041575;28;20706;-63
2021/08/07 05:07:29;;;;;;;3.30;2.50;;;16.50;99.90;;;16.54;94.06;97226.75;5027964;28;20625;-63
2021/08/07 05:09:59;;;;;;;2.80;2.60;;;16.60;99.90;;;16.58;95.32;97226.25;5040311;28;20616;-63
2021/08/07 05:12:31;;;;;;;3.20;2.77;;;16.60;99.90;;;16.64;93.26;97237.94;5024792;28;21036;-63
2021/08/07 05:14:59;;;;;;;5.03;3.07;;;16.70;99.90;;;16.68;93.48;97237.44;5021041;28;21468;-63
2021/08/07 05:17:31;;;;;;;5.97;2.90;;;16.70;99.90;;;16.74;93.80;97236.78;5025209;28;20617;-63
2021/08/07 05:19:59;;;;;;;3.70;2.70;;;16.80;99.90;;;16.82;94.22;97249.16;5026627;28;21189;-65
2021/08/07 05:22:33;;;;;;;4.23;2.33;;;16.80;99.90;;;16.88;93.32;97244.03;5026629;28;20651;-66
2021/08/07 05:25:02;;;;;;;3.87;2.50;;;16.90;99.90;;;16.93;93.50;97247.03;5027672;28;20652;-66
2021/08/07 05:27:32;;;;;;;3.37;2.80;;;16.90;99.90;;;16.92;94.00;97248.00;5022360;28;20624;-66
2021/08/07 05:30:04;;;;;;;5.60;3.10;;;16.90;99.90;;;16.93;93.01;97257.56;5028244;28;20638;-66
2021/08/07 05:32:35;;;;;;;7.07;2.90;;;16.90;99.90;;;16.94;94.55;97258.38;5042315;28;20642;-66
2021/08/07 05:35:04;;;;;;;7.40;2.93;;;16.90;99.90;;;16.96;94.36;97245.84;5038431;28;20637;-66
2021/08/07 05:37:37;;;;;;;6.03;2.80;;;17.00;99.90;;;17.01;93.10;97241.75;5027600;28;20726;-66
2021/08/07 05:40:08;;;;;;;3.30;2.90;;;17.00;99.90;;;17.06;94.38;97234.16;5041609;28;21035;-63
2021/08/07 05:42:39;;;;;;;4.10;3.00;;;17.10;99.90;;;17.11;93.72;97234.50;5022179;28;20630;-63
2021/08/07 05:45:09;;;;;;;3.00;2.50;;;17.10;99.90;;;17.14;93.27;97229.72;5041962;28;21173;-63
2021/08/07 05:47:40;;;;;;;4.63;2.30;;;17.10;99.90;;;17.18;93.59;97232.84;5042830;28;20738;-63
2021/08/07 05:50:10;;;;;;;5.40;2.80;;;17.10;99.90;;;17.28;94.50;97244.91;5022665;28;20694;-63
2021/08/07 05:52:40;;;;;;;6.50;2.90;;;17.20;99.90;;;17.33;93.75;97242.56;5023560;28;21217;-63
2021/08/07 05:55:13;;;;;;;4.67;3.00;;;17.30;99.90;;;17.42;94.16;97244.22;5026989;28;20640;-64
2021/08/07 05:57:42;;;;;;;4.80;2.97;;;17.30;99.90;;;17.55;93.69;97241.91;5024495;28;20689;-62
2021/08/07 06:00:13;;;;;;;5.03;2.80;;;17.50;99.90;;;17.68;93.73;97231.63;5019742;28;21007;-65
2021/08/07 06:02:53;;;;;;;5.37;2.87;;;17.60;99.90;;;17.77;92.89;97228.81;5026048;28;20621;-64
2021/08/07 06:05:43;;;;;;;4.70;2.83;;;17.70;99.90;;;17.80;92.50;97228.47;5026405;28;21225;-65
2021/08/07 06:08:11;;;;;;;3.00;2.70;;;17.80;99.90;;;17.80;92.48;97232.91;5026292;28;20633;-65
2021/08/07 06:10:41;;;;;;;5.20;3.00;;;17.80;99.90;;;17.81;92.25;97231.94;5022647;28;20658;-65
2021/08/07 06:13:10;;;;;;;5.03;2.60;;;17.80;99.90;;;18.05;92.10;97243.22;5024022;28;20634;-65
2021/08/07 06:15:40;;;;;;;4.13;2.77;;;18.00;99.90;;;18.56;92.10;97235.56;5018931;28;20656;-65
2021/08/07 06:18:10;;;;;;;2.80;2.53;;;18.40;99.90;;;18.85;90.93;97249.72;5020251;28;20653;-66
2021/08/07 06:20:43;;;;;;;3.40;2.73;;;18.60;99.90;;;19.33;89.81;97259.97;5019871;28;21301;-65
2021/08/07 06:23:12;;;;;;;3.27;2.50;;;19.00;99.90;;;19.51;88.49;97263.91;5018679;28;20670;-65
2021/08/07 06:25:41;;;;;;;3.43;2.30;;;19.20;99.90;;;19.40;88.00;97267.81;5025764;28;21054;-65
2021/08/07 06:28:10;;;;;;;3.03;2.70;;;19.30;99.90;;;19.31;88.53;97267.25;5028409;28;21082;-65
2021/08/07 06:30:45;;;;;;;4.37;2.40;;;19.20;99.90;;;19.21;88.31;97269.31;5021312;28;20632;-65
2021/08/07 06:33:20;;;;;;;7.80;3.07;;;19.20;99.90;;;19.14;90.52;97271.00;5040796;28;20629;-65
2021/08/07 06:35:49;;;;;;;3.07;2.17;;;19.10;99.90;;;19.12;89.32;97260.59;5022858;28;20631;-65
2021/08/07 06:38:18;;;;;;;4.90;2.83;;;19.10;99.90;;;19.19;89.87;97253.63;5017378;28;20646;-65
2021/08/07 06:40:47;;;;;;;2.40;2.10;;;19.20;99.90;;;19.43;88.31;97248.94;5020864;28;20726;-66
2021/08/07 06:43:19;;;;;;;2.60;2.30;;;19.30;99.90;;;19.55;86.67;97239.56;5018442;28;20632;-66
2021/08/07 06:45:57;;;;;;;2.63;2.43;;;19.40;99.90;;;19.83;87.77;97233.47;5022329;28;20633;-65
2021/08/07 06:48:27;;;;;;;2.93;2.63;;;19.60;99.90;;;20.14;86.12;97228.81;5024263;28;20621;-65
2021/08/07 06:50:57;;;;;;;2.87;2.00;;;19.90;99.90;;;20.35;87.16;97228.88;5006554;28;20643;-65
2021/08/07 06:53:27;;;;;;;2.40;2.20;;;20.10;99.90;;;20.48;86.86;97223.75;5021533;28;20644;-66
2021/08/07 06:55:55;;;;;;;8.07;2.60;;;20.30;99.90;;;20.95;84.40;97216.94;5023446;28;20709;-65
2021/08/07 06:58:25;;;;;;;6.50;2.27;;;20.60;99.90;;;21.28;83.04;97230.28;5001237;28;20695;-65
2021/08/07 07:00:53;;;;;;;2.80;2.00;;;20.90;99.90;;;21.30;82.70;97225.63;5021512;28;20664;-66
2021/08/07 07:03:23;;;;;;;2.80;2.60;;;21.00;99.90;;;21.68;84.64;97234.09;5020531;28;20637;-65
2021/08/07 07:05:53;;;;;;;2.97;2.53;;;21.40;99.90;;;21.88;84.23;97227.91;5024273;28;20723;-65
2021/08/07 07:08:22;;;;;;;4.13;2.47;;;21.60;99.90;;;22.11;83.03;97223.94;5019952;28;20644;-65
2021/08/07 07:10:51;;;;;;;2.57;2.00;;;21.80;99.90;;;22.42;80.50;97232.31;5013863;28;20649;-65
2021/08/07 07:13:21;;;;;;;3.70;2.60;;;22.10;99.90;;;22.83;77.65;97225.88;5020939;28;20618;-65
2021/08/07 07:15:51;;;;;;;3.80;2.00;;;22.40;98.70;;;23.26;75.68;97225.38;5022956;28;20634;-65
2021/08/07 07:18:21;;;;;;;3.33;2.00;;;22.90;97.10;;;23.72;72.70;97229.69;5026280;28;20724;-65
2021/08/07 07:20:49;;;;;;;3.67;1.80;;;23.20;95.50;;;24.08;73.64;97222.84;5020670;28;20661;-65
2021/08/07 07:23:20;;;;;;;2.80;1.97;;;23.60;95.60;;;24.44;72.14;97205.31;5002983;28;20636;-65
2021/08/07 07:25:52;;;;;;;3.20;1.90;;;24.00;94.40;;;24.57;71.89;97201.75;5020040;28;21494;-66
2021/08/07 07:28:21;;;;;;;5.63;1.80;;;24.20;93.80;;;24.85;70.34;97213.72;5023229;28;20634;-66
2021/08/07 07:30:50;;;;;;;3.37;1.67;;;24.40;93.10;;;25.14;70.78;97222.81;5040249;28;20624;-66
2021/08/07 07:33:20;;;;;;;4.70;2.07;;;24.80;93.00;;;25.40;69.67;97235.16;5018347;28;21190;-65
2021/08/07 07:35:50;;;;;;;2.60;1.83;;;25.00;92.20;;;25.20;68.89;97235.28;5012251;28;20630;-65
2021/08/07 07:38:21;;;;;;;7.73;2.10;;;24.90;90.50;;;24.73;71.00;97234.09;5020290;28;20686;-65
2021/08/07 07:40:49;;;;;;;2.97;1.90;;;24.70;91.00;;;24.34;70.50;97233.44;5026827;28;20712;-65
2021/08/07 07:43:20;;;;;;;3.40;2.10;;;24.40;90.10;;;24.03;70.91;97232.50;5038820;28;20739;-65
2021/08/07 07:45:50;;;;;;;4.20;2.20;;;24.10;90.60;;;23.73;72.20;97241.97;5005879;28;21097;-66
2021/08/07 07:48:18;;;;;;;3.77;2.37;;;23.90;91.30;;;23.46;73.12;97232.34;5024858;28;20217;-66
2021/08/07 07:50:48;;;;;;;4.57;2.30;;;23.60;91.60;;;23.29;73.86;97241.75;5018729;28;20619;-65
2021/08/07 07:53:17;;;;;;;3.33;2.20;;;23.40;91.80;;;23.20;74.99;97236.84;5007193;28;21258;-66
2021/08/07 07:55:47;;;;;;;2.90;2.20;;;23.30;92.70;;;23.12;75.06;97245.00;5019017;28;20664;-66
2021/08/07 07:58:16;;;;;;;3.20;2.30;;;23.20;93.00;;;23.05;75.78;97241.53;5022062;28;20619;-65
2021/08/07 08:00:45;;;;;;;4.80;2.47;;;23.10;93.50;;;22.99;75.83;97236.19;5025481;28;20751;-65
2021/08/07 08:03:14;;;;;;;3.00;2.37;;;23.00;93.10;;;22.91;75.02;97239.00;5036092;28;20634;-65
2021/08/07 08:05:45;;;;;;;4.07;2.60;;;22.90;92.70;;;22.82;74.76;97238.38;5004316;28;21292;-66
2021/08/07 08:08:14;;;;;;;4.07;2.37;;;22.90;92.70;;;22.75;75.06;97239.38;5022229;28;20634;-65
2021/08/07 08:10:44;;;;;;;3.10;2.10;;;22.80;92.60;;;22.66;73.99;97235.25;5021115;28;20630;-66
2021/08/07 08:13:20;;;;;;;3.50;2.20;;;22.60;91.90;;;22.63;74.74;97224.19;5032614;28;21225;-65
2021/08/07 08:15:51;;;;;;;3.80;2.40;;;22.60;92.70;;;22.71;75.14;97218.72;5027215;28;20624;-66
2021/08/07 08:18:23;;;;;;;5.63;2.63;;;22.60;93.30;;;23.16;74.41;97210.84;5016227;28;20631;-65
2021/08/07 08:20:52;;;;;;;4.80;2.20;;;22.90;93.60;;;23.78;74.23;97196.88;5022921;28;20726;-66
2021/08/07 08:23:21;;;;;;;3.60;2.50;;;23.40;93.70;;;24.29;71.71;97193.25;5027848;28;20713;-65
2021/08/07 08:25:51;;;;;;;3.30;2.43;;;23.80;92.10;;;24.28;70.99;97186.25;5044738;28;20636;-66
2021/08/07 08:28:22;;;;;;;2.50;2.10;;;24.00;91.50;;;24.15;70.40;97171.16;5027417;28;21083;-66
2021/08/07 08:30:51;;;;;;;2.90;2.50;;;23.90;90.30;;;24.18;70.24;97181.38;5020115;28;20974;-66
2021/08/07 08:33:20;;;;;;;2.87;2.10;;;24.00;91.40;;;24.14;71.41;97171.34;5023248;28;20638;-66
2021/08/07 08:35:48;;;;;;;4.43;2.03;;;23.90;90.70;;;24.11;70.58;97189.63;5038693;28;21203;-66
2021/08/07 08:38:18;;;;;;;3.27;2.17;;;23.90;90.70;;;24.16;69.46;97178.13;5018142;28;20639;-66
2021/08/07 08:40:47;;;;;;;3.37;2.20;;;23.90;88.90;;;24.22;70.36;97177.28;5023159;28;20724;-66
2021/08/07 08:43:17;;;;;;;4.20;1.97;;;24.00;89.50;;;24.36;68.85;97176.22;5019232;28;21005;-66
2021/08/07 08:45:49;;;;;;;2.30;1.80;;;24.20;89.20;;;24.34;68.27;97177.44;5023132;28;20625;-66
2021/08/07 08:48:18;;;;;;;3.90;2.10;;;24.20;86.40;;;24.32;67.81;97172.34;5027786;28;21001;-69
2021/08/07 08:50:49;;;;;;;2.20;1.90;;;24.20;86.30;;;24.30;67.22;97162.91;5023096;28;20630;-66
2021/08/07 08:53:19;;;;;;;2.87;2.00;;;24.10;85.50;;;24.31;67.83;97170.69;5019778;28;20647;-66
2021/08/07 08:55:49;;;;;;;4.20;2.00;;;24.20;85.60;;;24.28;69.82;97173.78;5017193;28;20657;-66
2021/08/07 08:58:18;;;;;;;3.07;2.77;;;24.20;87.80;;;24.29;70.30;97170.06;5037336;28;20638;-65
2021/08/07 09:00:48;;;;;;;3.83;3.20;;;24.20;88.50;;;24.35;70.40;97165.78;5037768;28;20633;-66
2021/08/07 09:03:18;;;;;;;3.30;2.00;;;24.20;89.30;;;24.39;69.34;97167.81;5022741;28;21005;-66
2021/08/07 09:05:47;;;;;;;3.53;2.50;;;24.20;88.10;;;24.41;69.22;97151.59;5023012;28;20665;-66
2021/08/07 09:08:17;;;;;;;3.00;2.20;;;24.20;88.00;;;24.38;68.29;97152.00;5020276;28;20688;-66
2021/08/07 09:10:46;;;;;;;3.93;2.17;;;24.20;86.30;;;24.31;68.11;97157.34;5022370;28;20644;-66
2021/08/07 09:13:22;;;;;;;4.40;2.30;;;24.20;85.30;;;24.33;68.08;97154.50;5022774;28;20655;-66
2021/08/07 09:16:07;;;;;;;4.63;1.83;;;24.20;85.80;;;24.41;66.85;97162.25;5018672;28;20633;-66
2021/08/07 09:18:36;;;;;;;2.50;1.93;;;24.30;84.70;;;24.45;66.59;97158.94;5023666;28;21043;-66
2021/08/07 09:21:17;;;;;;;3.53;2.20;;;24.30;83.60;;;24.39;67.12;97156.31;5039048;28;20633;-64
2021/08/07 09:24:08;;;;;;;2.27;2.07;;;24.20;83.60;;;24.34;68.01;97145.44;5027076;28;20702;-65
2021/08/07 09:26:43;;;;;;;2.90;1.83;;;24.20;83.80;;;24.26;67.87;97143.00;5023951;28;20708;-65
2021/08/07 09:29:13;;;;;;;3.20;2.27;;;24.20;84.40;;;24.19;68.06;97135.06;5018628;28;20624;-64
2021/08/07 09:31:59;;;;;;;3.60;2.10;;;24.10;84.90;;;24.12;66.65;97135.31;5017476;28;20619;-65
2021/08/07 09:34:31;;;;;;;2.07;1.70;;;24.00;83.00;;;24.09;67.40;97138.38;5023138;28;20992;-64
2021/08/07 09:37:03;;;;;;;2.97;2.20;;;24.00;82.40;;;24.12;68.64;97135.31;5022615;28;20632;-63
2021/08/07 09:39:38;;;;;;;2.17;1.70;;;24.00;84.10;;;24.19;68.26;97135.06;5008874;28;20974;-63
2021/08/07 09:42:11;;;;;;;2.93;1.87;;;24.10;84.40;;;24.28;68.72;97140.94;5026447;28;20757;-63
2021/08/07 09:44:40;;;;;;;2.63;2.30;;;24.10;85.20;;;24.37;69.75;97142.38;5021314;28;20634;-63
2021/08/07 09:47:13;;;;;;;2.10;1.70;;;24.20;87.50;;;24.43;68.53;97139.69;5029669;28;21054;-64
2021/08/07 09:49:46;;;;;;;2.73;1.73;;;24.30;84.90;;;24.44;67.98;97146.63;5024366;28;20737;-63
2021/08/07 09:52:17;;;;;;;2.90;2.20;;;24.30;84.80;;;24.41;69.39;97148.91;5037825;28;20757;-63
2021/08/07 09:54:47;;;;;;;8.97;6.30;;;24.30;86.30;;;24.36;70.14;97146.09;5019924;28;20301;-62
2021/08/07 09:57:26;;;;;;;3.00;2.70;;;24.20;86.50;;;24.23;69.38;97157.56;5022057;28;20620;-62
2021/08/07 09:59:55;;;;;;;5.13;2.70;;;24.20;85.40;;;24.15;71.22;97153.53;5022385;28;20634;-63
2021/08/07 10:02:31;;;;;;;3.10;2.13;;;24.10;88.40;;;24.03;72.21;97148.03;5021531;28;20723;-62
2021/08/07 10:05:05;;;;;;;3.23;2.30;;;24.00;89.70;;;23.96;74.19;97162.41;5017406;28;20641;-63
2021/08/07 10:07:35;;;;;;;29.53;23.17;;;23.90;90.70;;;23.91;74.81;97171.03;5027376;28;21045;-63
2021/08/07 10:10:24;;;;;;;10.43;9.33;;;23.90;91.30;;;23.84;75.58;97172.88;5040475;28;21172;-63
2021/08/07 10:12:57;;;;;;;4.40;2.60;;;23.90;91.70;;;23.78;74.34;97197.69;5039184;28;20636;-63
2021/08/07 10:15:40;;;;;;;3.47;2.10;;;23.80;91.50;;;23.67;74.85;97199.38;5016826;28;20740;-63
2021/08/07 10:18:12;;;;;;;5.07;2.20;;;23.70;91.50;;;23.60;75.05;97204.66;5022800;28;21271;-63
2021/08/07 10:20:44;;;;;;;2.90;2.00;;;23.60;91.70;;;23.55;75.53;97201.81;5021215;28;21082;-62
2021/08/07 10:23:14;;;;;;;3.00;2.03;;;23.60;92.10;;;23.51;76.47;97211.22;5021921;28;20658;-62
2021/08/07 10:25:45;;;;;;;3.33;1.90;;;23.50;92.40;;;23.45;77.45;97209.38;5018360;28;20683;-63
2021/08/07 10:28:18;;;;;;;3.33;2.47;;;23.50;93.50;;;23.38;77.32;97202.44;5035083;28;21241;-63
2021/08/07 10:30:47;;;;;;;3.37;2.30;;;23.40;93.60;;;23.30;79.31;97192.81;5035520;28;21301;-62
2021/08/07 10:33:21;;;;;;;5.50;2.60;;;23.30;94.70;;;23.21;80.11;97195.88;5018605;28;21183;-63
2021/08/07 10:35:50;;;;;;;5.10;2.70;;;23.30;95.50;;;23.12;80.79;97185.63;5023175;28;20624;-63
2021/08/07 10:38:19;;;;;;;3.97;2.40;;;23.20;96.20;;;23.07;81.37;97158.84;5037076;28;20643;-63